sensor_id;sensor_type;location;lat;lon;timestamp;P1;durP1;ratioP1;P2;durP2;ratioP2
8698;SDS011;4386;51.236;6.742;2024-03-23T00:53:24;16.63;;;12.43;;
8698;SDS011;4386;51.236;6.742;2024-03-23T00:54:26;17.27;;;11.20;;
8698;SDS011;4386;51.236;6.742;2024-03-23T00:55:27;15.50;;;11.93;;
8698;SDS011;4386;51.236;6.742;2024-03-23T00:56:30;17.20;;;12.10;;
8698;SDS011;4386;51.236;6.742;2024-03-23T00:57:34;13.07;;;11.00;;
8698;SDS011;4386;51.236;6.742;2024-03-23T00:58:36;15.63;;;11.10;;
8698;SDS011;4386;51.236;6.742;2024-03-23T00:59:39;20.17;;;12.87;;
8698;SDS011;4386;51.236;6.742;2024-03-23T01:00:41;20.30;;;12.30;;
8698;SDS011;4386;51.236;6.742;2024-03-23T01:01:43;16.70;;;12.53;;
8698;SDS011;4386;51.236;6.742;2024-03-23T01:02:45;15.80;;;12.50;;
8698;SDS011;4386;51.236;6.742;2024-03-23T01:03:48;20.27;;;13.40;;
8698;SDS011;4386;51.236;6.742;2024-03-23T01:04:49;19.40;;;12.40;;
8698;SDS011;4386;51.236;6.742;2024-03-23T01:05:52;17.47;;;11.67;;
8698;SDS011;4386;51.236;6.742;2024-03-23T01:06:55;14.80;;;10.90;;
8698;SDS011;4386;51.236;6.742;2024-03-23T01:07:58;16.97;;;12.90;;
8698;SDS011;4386;51.236;6.742;2024-03-23T01:09:00;16.33;;;12.40;;
8698;SDS011;4386;51.236;6.742;2024-03-23T01:10:12;19.80;;;14.10;;
8698;SDS011;4386;51.236;6.742;2024-03-23T01:11:15;16.40;;;13.27;;
8698;SDS011;4386;51.236;6.742;2024-03-23T01:12:16;14.77;;;11.47;;
8698;SDS011;4386;51.236;6.742;2024-03-23T01:13:18;15.60;;;11.90;;
8698;SDS011;4386;51.236;6.742;2024-03-23T01:14:22;19.03;;;12.80;;
8698;SDS011;4386;51.236;6.742;2024-03-23T01:15:25;20.90;;;12.00;;
8698;SDS011;4386;51.236;6.742;2024-03-23T01:16:27;17.10;;;12.33;;
8698;SDS011;4386;51.236;6.742;2024-03-23T01:17:29;17.80;;;11.30;;
8698;SDS011;4386;51.236;6.742;2024-03-23T01:18:31;16.60;;;12.07;;
8698;SDS011;4386;51.236;6.742;2024-03-23T01:19:34;17.10;;;13.03;;
8698;SDS011;4386;51.236;6.742;2024-03-23T01:20:41;15.80;;;12.40;;
8698;SDS011;4386;51.236;6.742;2024-03-23T01:21:43;17.47;;;12.53;;
8698;SDS011;4386;51.236;6.742;2024-03-23T01:22:46;19.60;;;14.40;;
8698;SDS011;4386;51.236;6.742;2024-03-23T01:23:49;18.13;;;12.20;;
8698;SDS011;4386;51.236;6.742;2024-03-23T01:24:51;20.27;;;13.20;;
8698;SDS011;4386;51.236;6.742;2024-03-23T01:25:53;15.60;;;11.67;;
8698;SDS011;4386;51.236;6.742;2024-03-23T01:26:57;14.33;;;12.03;;
8698;SDS011;4386;51.236;6.742;2024-03-23T01:28:00;18.40;;;12.37;;
8698;SDS011;4386;51.236;6.742;2024-03-23T01:29:01;18.57;;;12.83;;
8698;SDS011;4386;51.236;6.742;2024-03-23T01:30:03;17.67;;;13.20;;
8698;SDS011;4386;51.236;6.742;2024-03-23T01:31:06;19.30;;;12.33;;
8698;SDS011;4386;51.236;6.742;2024-03-23T01:32:09;17.33;;;12.10;;
8698;SDS011;4386;51.236;6.742;2024-03-23T01:33:11;18.90;;;13.60;;
8698;SDS011;4386;51.236;6.742;2024-03-23T01:34:13;20.50;;;13.57;;
8698;SDS011;4386;51.236;6.742;2024-03-23T01:35:15;18.63;;;14.20;;
8698;SDS011;4386;51.236;6.742;2024-03-23T01:36:17;15.27;;;11.53;;
8698;SDS011;4386;51.236;6.742;2024-03-23T01:37:19;16.63;;;12.80;;
8698;SDS011;4386;51.236;6.742;2024-03-23T01:38:22;14.07;;;11.07;;
8698;SDS011;4386;51.236;6.742;2024-03-23T01:39:24;19.75;;;13.40;;
8698;SDS011;4386;51.236;6.742;2024-03-23T01:40:27;19.43;;;13.83;;
8698;SDS011;4386;51.236;6.742;2024-03-23T01:41:32;16.90;;;12.30;;
8698;SDS011;4386;51.236;6.742;2024-03-23T01:42:34;17.42;;;12.68;;
8698;SDS011;4386;51.236;6.742;2024-03-23T01:43:36;20.35;;;13.75;;
8698;SDS011;4386;51.236;6.742;2024-03-23T01:44:39;17.80;;;12.77;;
8698;SDS011;4386;51.236;6.742;2024-03-23T01:45:41;18.63;;;13.77;;
8698;SDS011;4386;51.236;6.742;2024-03-23T01:46:44;15.90;;;12.30;;
8698;SDS011;4386;51.236;6.742;2024-03-23T01:47:46;17.27;;;11.97;;
8698;SDS011;4386;51.236;6.742;2024-03-23T01:48:48;17.70;;;12.40;;
8698;SDS011;4386;51.236;6.742;2024-03-23T01:49:52;15.83;;;11.57;;
8698;SDS011;4386;51.236;6.742;2024-03-23T01:50:54;16.50;;;11.40;;
8698;SDS011;4386;51.236;6.742;2024-03-23T01:51:56;20.35;;;13.07;;
8698;SDS011;4386;51.236;6.742;2024-03-23T01:52:58;18.73;;;11.67;;
8698;SDS011;4386;51.236;6.742;2024-03-23T01:54:03;19.97;;;11.90;;
8698;SDS011;4386;51.236;6.742;2024-03-23T01:55:05;20.73;;;12.93;;
8698;SDS011;4386;51.236;6.742;2024-03-23T01:56:08;18.80;;;12.57;;
8698;SDS011;4386;51.236;6.742;2024-03-23T01:57:10;16.92;;;12.70;;
8698;SDS011;4386;51.236;6.742;2024-03-23T01:58:15;18.00;;;12.15;;
8698;SDS011;4386;51.236;6.742;2024-03-23T01:59:17;17.10;;;12.90;;
8698;SDS011;4386;51.236;6.742;2024-03-23T02:00:19;16.57;;;12.33;;
8698;SDS011;4386;51.236;6.742;2024-03-23T02:01:21;16.92;;;12.50;;
8698;SDS011;4386;51.236;6.742;2024-03-23T02:02:24;17.50;;;11.80;;
8698;SDS011;4386;51.236;6.742;2024-03-23T02:03:26;17.98;;;12.55;;
8698;SDS011;4386;51.236;6.742;2024-03-23T02:04:29;19.52;;;13.30;;
8698;SDS011;4386;51.236;6.742;2024-03-23T02:05:31;15.80;;;12.27;;
8698;SDS011;4386;51.236;6.742;2024-03-23T02:06:34;17.40;;;12.00;;
8698;SDS011;4386;51.236;6.742;2024-03-23T02:07:35;21.45;;;14.68;;
8698;SDS011;4386;51.236;6.742;2024-03-23T02:08:38;20.73;;;13.73;;
8698;SDS011;4386;51.236;6.742;2024-03-23T02:09:42;19.77;;;14.30;;
8698;SDS011;4386;51.236;6.742;2024-03-23T02:10:46;19.95;;;13.75;;
8698;SDS011;4386;51.236;6.742;2024-03-23T02:11:48;18.45;;;13.73;;
8698;SDS011;4386;51.236;6.742;2024-03-23T02:12:50;18.67;;;13.50;;
8698;SDS011;4386;51.236;6.742;2024-03-23T02:13:52;22.25;;;13.60;;
8698;SDS011;4386;51.236;6.742;2024-03-23T02:14:55;24.33;;;15.40;;
8698;SDS011;4386;51.236;6.742;2024-03-23T02:15:57;21.77;;;15.48;;
8698;SDS011;4386;51.236;6.742;2024-03-23T02:16:59;18.80;;;13.15;;
8698;SDS011;4386;51.236;6.742;2024-03-23T02:18:01;20.08;;;14.30;;
8698;SDS011;4386;51.236;6.742;2024-03-23T02:19:03;20.00;;;13.57;;
8698;SDS011;4386;51.236;6.742;2024-03-23T02:20:06;21.38;;;14.30;;
8698;SDS011;4386;51.236;6.742;2024-03-23T02:21:08;18.85;;;13.05;;
8698;SDS011;4386;51.236;6.742;2024-03-23T02:22:10;19.33;;;13.85;;
8698;SDS011;4386;51.236;6.742;2024-03-23T02:23:15;20.20;;;14.98;;
8698;SDS011;4386;51.236;6.742;2024-03-23T02:24:19;19.30;;;13.55;;
8698;SDS011;4386;51.236;6.742;2024-03-23T02:25:20;23.58;;;14.32;;
8698;SDS011;4386;51.236;6.742;2024-03-23T02:26:22;20.88;;;14.20;;
8698;SDS011;4386;51.236;6.742;2024-03-23T02:27:24;21.35;;;14.30;;
8698;SDS011;4386;51.236;6.742;2024-03-23T02:28:27;21.98;;;14.30;;
8698;SDS011;4386;51.236;6.742;2024-03-23T02:29:29;20.30;;;13.82;;
8698;SDS011;4386;51.236;6.742;2024-03-23T02:30:31;21.20;;;13.15;;
8698;SDS011;4386;51.236;6.742;2024-03-23T02:31:33;20.65;;;13.68;;
8698;SDS011;4386;51.236;6.742;2024-03-23T02:32:35;20.85;;;13.52;;
8698;SDS011;4386;51.236;6.742;2024-03-23T02:33:37;16.55;;;12.68;;
8698;SDS011;4386;51.236;6.742;2024-03-23T02:34:40;21.23;;;14.20;;
8698;SDS011;4386;51.236;6.742;2024-03-23T02:35:43;20.73;;;13.02;;
8698;SDS011;4386;51.236;6.742;2024-03-23T02:36:45;16.77;;;13.00;;
8698;SDS011;4386;51.236;6.742;2024-03-23T02:37:48;23.67;;;13.00;;
8698;SDS011;4386;51.236;6.742;2024-03-23T02:38:51;18.10;;;13.02;;
8698;SDS011;4386;51.236;6.742;2024-03-23T02:39:53;22.70;;;13.65;;
8698;SDS011;4386;51.236;6.742;2024-03-23T02:41:00;18.40;;;12.45;;
8698;SDS011;4386;51.236;6.742;2024-03-23T02:42:04;18.35;;;13.40;;
8698;SDS011;4386;51.236;6.742;2024-03-23T02:43:07;19.90;;;13.68;;
8698;SDS011;4386;51.236;6.742;2024-03-23T02:44:09;18.02;;;13.63;;
8698;SDS011;4386;51.236;6.742;2024-03-23T02:45:12;18.40;;;12.93;;
8698;SDS011;4386;51.236;6.742;2024-03-23T02:46:15;20.20;;;13.02;;
8698;SDS011;4386;51.236;6.742;2024-03-23T02:47:18;24.42;;;12.80;;
8698;SDS011;4386;51.236;6.742;2024-03-23T02:48:21;18.92;;;13.68;;
8698;SDS011;4386;51.236;6.742;2024-03-23T02:49:25;19.10;;;14.13;;
8698;SDS011;4386;51.236;6.742;2024-03-23T02:50:28;18.25;;;13.48;;
8698;SDS011;4386;51.236;6.742;2024-03-23T02:51:29;18.45;;;13.50;;
8698;SDS011;4386;51.236;6.742;2024-03-23T02:52:31;22.30;;;11.88;;
8698;SDS011;4386;51.236;6.742;2024-03-23T02:53:33;19.30;;;13.32;;
8698;SDS011;4386;51.236;6.742;2024-03-23T02:54:37;24.50;;;13.55;;
8698;SDS011;4386;51.236;6.742;2024-03-23T02:55:39;20.70;;;14.25;;
8698;SDS011;4386;51.236;6.742;2024-03-23T02:56:41;20.52;;;13.32;;
8698;SDS011;4386;51.236;6.742;2024-03-23T02:57:43;20.60;;;15.02;;
8698;SDS011;4386;51.236;6.742;2024-03-23T02:58:46;22.17;;;14.50;;
8698;SDS011;4386;51.236;6.742;2024-03-23T03:00:07;21.02;;;14.27;;
8698;SDS011;4386;51.236;6.742;2024-03-23T03:01:24;23.25;;;14.73;;
8698;SDS011;4386;51.236;6.742;2024-03-23T03:02:27;20.40;;;13.35;;
8698;SDS011;4386;51.236;6.742;2024-03-23T03:03:29;19.95;;;15.05;;
8698;SDS011;4386;51.236;6.742;2024-03-23T03:04:31;19.17;;;13.85;;
8698;SDS011;4386;51.236;6.742;2024-03-23T03:05:33;20.70;;;14.20;;
8698;SDS011;4386;51.236;6.742;2024-03-23T03:06:36;21.30;;;14.70;;
8698;SDS011;4386;51.236;6.742;2024-03-23T03:07:39;18.17;;;14.35;;
8698;SDS011;4386;51.236;6.742;2024-03-23T03:08:42;20.27;;;13.15;;
8698;SDS011;4386;51.236;6.742;2024-03-23T03:09:45;22.13;;;14.43;;
8698;SDS011;4386;51.236;6.742;2024-03-23T03:10:46;20.50;;;13.55;;
8698;SDS011;4386;51.236;6.742;2024-03-23T03:11:51;22.77;;;15.07;;
8698;SDS011;4386;51.236;6.742;2024-03-23T03:12:53;22.65;;;14.98;;
8698;SDS011;4386;51.236;6.742;2024-03-23T03:13:55;23.50;;;14.95;;
8698;SDS011;4386;51.236;6.742;2024-03-23T03:14:57;24.45;;;15.55;;
8698;SDS011;4386;51.236;6.742;2024-03-23T03:15:59;23.02;;;14.80;;
8698;SDS011;4386;51.236;6.742;2024-03-23T03:17:01;21.33;;;14.93;;
8698;SDS011;4386;51.236;6.742;2024-03-23T03:18:03;19.75;;;15.05;;
8698;SDS011;4386;51.236;6.742;2024-03-23T03:19:05;19.88;;;14.32;;
8698;SDS011;4386;51.236;6.742;2024-03-23T03:20:08;19.73;;;14.32;;
8698;SDS011;4386;51.236;6.742;2024-03-23T03:21:14;22.55;;;15.18;;
8698;SDS011;4386;51.236;6.742;2024-03-23T03:22:19;21.40;;;15.35;;
8698;SDS011;4386;51.236;6.742;2024-03-23T03:23:22;20.92;;;14.73;;
8698;SDS011;4386;51.236;6.742;2024-03-23T03:24:24;19.88;;;13.45;;
8698;SDS011;4386;51.236;6.742;2024-03-23T03:25:27;24.98;;;15.00;;
8698;SDS011;4386;51.236;6.742;2024-03-23T03:26:30;20.58;;;14.52;;
8698;SDS011;4386;51.236;6.742;2024-03-23T03:27:32;20.15;;;14.55;;
8698;SDS011;4386;51.236;6.742;2024-03-23T03:28:35;18.38;;;14.23;;
8698;SDS011;4386;51.236;6.742;2024-03-23T03:29:37;18.90;;;14.30;;
8698;SDS011;4386;51.236;6.742;2024-03-23T03:30:39;20.58;;;13.65;;
8698;SDS011;4386;51.236;6.742;2024-03-23T03:31:41;20.10;;;13.75;;
8698;SDS011;4386;51.236;6.742;2024-03-23T03:32:44;21.52;;;13.95;;
8698;SDS011;4386;51.236;6.742;2024-03-23T03:33:46;20.70;;;14.88;;
8698;SDS011;4386;51.236;6.742;2024-03-23T03:34:50;18.33;;;13.13;;
8698;SDS011;4386;51.236;6.742;2024-03-23T03:35:52;20.50;;;14.00;;
8698;SDS011;4386;51.236;6.742;2024-03-23T03:36:59;21.40;;;13.52;;
8698;SDS011;4386;51.236;6.742;2024-03-23T03:38:40;20.35;;;13.57;;
8698;SDS011;4386;51.236;6.742;2024-03-23T03:40:12;20.20;;;14.23;;
8698;SDS011;4386;51.236;6.742;2024-03-23T03:41:46;19.60;;;14.27;;
8698;SDS011;4386;51.236;6.742;2024-03-23T03:43:22;19.10;;;13.65;;
8698;SDS011;4386;51.236;6.742;2024-03-23T03:44:52;20.73;;;12.98;;
8698;SDS011;4386;51.236;6.742;2024-03-23T03:45:55;20.85;;;14.20;;
8698;SDS011;4386;51.236;6.742;2024-03-23T03:47:10;20.52;;;15.05;;
8698;SDS011;4386;51.236;6.742;2024-03-23T03:49:14;21.25;;;13.68;;
8698;SDS011;4386;51.236;6.742;2024-03-23T03:50:59;24.20;;;14.35;;
8698;SDS011;4386;51.236;6.742;2024-03-23T03:52:35;21.73;;;13.25;;
8698;SDS011;4386;51.236;6.742;2024-03-23T03:54:05;21.27;;;13.93;;
8698;SDS011;4386;51.236;6.742;2024-03-23T03:55:41;22.05;;;13.18;;
8698;SDS011;4386;51.236;6.742;2024-03-23T03:57:19;29.48;;;14.13;;
8698;SDS011;4386;51.236;6.742;2024-03-23T03:58:49;21.02;;;14.50;;
8698;SDS011;4386;51.236;6.742;2024-03-23T03:59:52;21.25;;;13.90;;
8698;SDS011;4386;51.236;6.742;2024-03-23T04:00:54;21.95;;;14.50;;
8698;SDS011;4386;51.236;6.742;2024-03-23T04:01:56;26.83;;;14.25;;
8698;SDS011;4386;51.236;6.742;2024-03-23T04:02:59;21.27;;;13.10;;
8698;SDS011;4386;51.236;6.742;2024-03-23T04:04:01;25.48;;;15.50;;
8698;SDS011;4386;51.236;6.742;2024-03-23T04:05:03;19.90;;;14.73;;
8698;SDS011;4386;51.236;6.742;2024-03-23T04:06:05;23.45;;;15.85;;
8698;SDS011;4386;51.236;6.742;2024-03-23T04:07:06;22.80;;;14.60;;
8698;SDS011;4386;51.236;6.742;2024-03-23T04:08:09;21.50;;;15.48;;
8698;SDS011;4386;51.236;6.742;2024-03-23T04:09:11;24.60;;;15.90;;
8698;SDS011;4386;51.236;6.742;2024-03-23T04:10:13;20.90;;;14.77;;
8698;SDS011;4386;51.236;6.742;2024-03-23T04:11:16;22.52;;;14.50;;
8698;SDS011;4386;51.236;6.742;2024-03-23T04:12:20;19.60;;;14.32;;
8698;SDS011;4386;51.236;6.742;2024-03-23T04:13:22;23.30;;;15.07;;
8698;SDS011;4386;51.236;6.742;2024-03-23T04:14:24;23.08;;;15.52;;
8698;SDS011;4386;51.236;6.742;2024-03-23T04:15:26;23.00;;;14.73;;
8698;SDS011;4386;51.236;6.742;2024-03-23T04:16:31;20.92;;;15.45;;
8698;SDS011;4386;51.236;6.742;2024-03-23T04:17:34;21.02;;;14.27;;
8698;SDS011;4386;51.236;6.742;2024-03-23T04:18:36;23.67;;;15.18;;
8698;SDS011;4386;51.236;6.742;2024-03-23T04:19:38;23.40;;;15.20;;
8698;SDS011;4386;51.236;6.742;2024-03-23T04:20:42;20.67;;;13.65;;
8698;SDS011;4386;51.236;6.742;2024-03-23T04:21:43;24.48;;;15.20;;
8698;SDS011;4386;51.236;6.742;2024-03-23T04:22:45;21.92;;;15.13;;
8698;SDS011;4386;51.236;6.742;2024-03-23T04:23:47;24.20;;;15.05;;
8698;SDS011;4386;51.236;6.742;2024-03-23T04:24:51;21.92;;;15.70;;
8698;SDS011;4386;51.236;6.742;2024-03-23T04:25:53;24.05;;;15.52;;
8698;SDS011;4386;51.236;6.742;2024-03-23T04:26:55;22.08;;;15.05;;
8698;SDS011;4386;51.236;6.742;2024-03-23T04:27:58;23.00;;;13.77;;
8698;SDS011;4386;51.236;6.742;2024-03-23T04:29:01;22.90;;;14.68;;
8698;SDS011;4386;51.236;6.742;2024-03-23T04:30:04;22.65;;;14.50;;
8698;SDS011;4386;51.236;6.742;2024-03-23T04:31:11;21.35;;;14.63;;
8698;SDS011;4386;51.236;6.742;2024-03-23T04:32:14;19.30;;;15.15;;
8698;SDS011;4386;51.236;6.742;2024-03-23T04:33:17;19.10;;;14.30;;
8698;SDS011;4386;51.236;6.742;2024-03-23T04:34:19;19.38;;;13.70;;
8698;SDS011;4386;51.236;6.742;2024-03-23T04:35:20;24.55;;;15.93;;
8698;SDS011;4386;51.236;6.742;2024-03-23T04:36:26;21.15;;;13.77;;
8698;SDS011;4386;51.236;6.742;2024-03-23T04:37:28;21.40;;;14.45;;
8698;SDS011;4386;51.236;6.742;2024-03-23T04:38:30;21.42;;;15.70;;
8698;SDS011;4386;51.236;6.742;2024-03-23T04:39:32;22.38;;;15.35;;
8698;SDS011;4386;51.236;6.742;2024-03-23T04:40:35;18.83;;;14.82;;
8698;SDS011;4386;51.236;6.742;2024-03-23T04:41:37;23.35;;;15.07;;
8698;SDS011;4386;51.236;6.742;2024-03-23T04:42:40;22.38;;;15.52;;
8698;SDS011;4386;51.236;6.742;2024-03-23T04:43:43;22.35;;;15.10;;
8698;SDS011;4386;51.236;6.742;2024-03-23T04:44:45;25.08;;;15.00;;
8698;SDS011;4386;51.236;6.742;2024-03-23T04:45:48;25.55;;;15.88;;
8698;SDS011;4386;51.236;6.742;2024-03-23T04:46:50;21.33;;;14.55;;
8698;SDS011;4386;51.236;6.742;2024-03-23T04:47:52;26.65;;;16.85;;
8698;SDS011;4386;51.236;6.742;2024-03-23T04:48:55;20.25;;;15.05;;
8698;SDS011;4386;51.236;6.742;2024-03-23T04:49:57;21.85;;;14.93;;
8698;SDS011;4386;51.236;6.742;2024-03-23T04:51:01;22.23;;;14.43;;
8698;SDS011;4386;51.236;6.742;2024-03-23T04:52:03;22.05;;;15.35;;
8698;SDS011;4386;51.236;6.742;2024-03-23T04:53:05;25.25;;;15.02;;
8698;SDS011;4386;51.236;6.742;2024-03-23T04:54:08;22.95;;;15.27;;
8698;SDS011;4386;51.236;6.742;2024-03-23T04:55:10;19.27;;;13.75;;
8698;SDS011;4386;51.236;6.742;2024-03-23T04:56:13;19.92;;;13.27;;
8698;SDS011;4386;51.236;6.742;2024-03-23T04:57:15;23.60;;;15.60;;
8698;SDS011;4386;51.236;6.742;2024-03-23T04:58:18;28.20;;;16.30;;
8698;SDS011;4386;51.236;6.742;2024-03-23T04:59:21;20.80;;;15.02;;
8698;SDS011;4386;51.236;6.742;2024-03-23T05:00:23;20.05;;;13.98;;
8698;SDS011;4386;51.236;6.742;2024-03-23T05:01:26;24.00;;;14.13;;
8698;SDS011;4386;51.236;6.742;2024-03-23T05:02:28;23.45;;;15.10;;
8698;SDS011;4386;51.236;6.742;2024-03-23T05:03:30;23.23;;;16.30;;
8698;SDS011;4386;51.236;6.742;2024-03-23T05:04:32;25.70;;;15.27;;
8698;SDS011;4386;51.236;6.742;2024-03-23T05:05:34;24.45;;;15.75;;
8698;SDS011;4386;51.236;6.742;2024-03-23T05:06:36;21.70;;;14.30;;
8698;SDS011;4386;51.236;6.742;2024-03-23T05:07:38;21.60;;;15.73;;
8698;SDS011;4386;51.236;6.742;2024-03-23T05:08:42;24.30;;;14.75;;
8698;SDS011;4386;51.236;6.742;2024-03-23T05:09:44;22.25;;;16.02;;
8698;SDS011;4386;51.236;6.742;2024-03-23T05:10:46;24.15;;;15.77;;
8698;SDS011;4386;51.236;6.742;2024-03-23T05:11:48;27.05;;;17.35;;
8698;SDS011;4386;51.236;6.742;2024-03-23T05:12:50;22.27;;;16.13;;
8698;SDS011;4386;51.236;6.742;2024-03-23T05:13:52;20.58;;;15.55;;
8698;SDS011;4386;51.236;6.742;2024-03-23T05:14:55;23.85;;;15.02;;
8698;SDS011;4386;51.236;6.742;2024-03-23T05:15:58;24.85;;;18.10;;
8698;SDS011;4386;51.236;6.742;2024-03-23T05:17:00;24.13;;;16.65;;
8698;SDS011;4386;51.236;6.742;2024-03-23T05:18:02;23.70;;;15.30;;
8698;SDS011;4386;51.236;6.742;2024-03-23T05:19:06;26.15;;;16.63;;
8698;SDS011;4386;51.236;6.742;2024-03-23T05:20:08;23.88;;;15.77;;
8698;SDS011;4386;51.236;6.742;2024-03-23T05:21:11;23.35;;;17.00;;
8698;SDS011;4386;51.236;6.742;2024-03-23T05:22:19;24.33;;;15.77;;
8698;SDS011;4386;51.236;6.742;2024-03-23T05:23:21;24.42;;;15.30;;
8698;SDS011;4386;51.236;6.742;2024-03-23T05:24:23;21.35;;;15.40;;
8698;SDS011;4386;51.236;6.742;2024-03-23T05:25:26;25.00;;;15.45;;
8698;SDS011;4386;51.236;6.742;2024-03-23T05:26:28;25.52;;;15.38;;
8698;SDS011;4386;51.236;6.742;2024-03-23T05:27:31;23.33;;;15.95;;
8698;SDS011;4386;51.236;6.742;2024-03-23T05:28:33;45.03;;;16.75;;
8698;SDS011;4386;51.236;6.742;2024-03-23T05:29:36;76.63;;;19.83;;
8698;SDS011;4386;51.236;6.742;2024-03-23T05:30:40;54.33;;;17.70;;
8698;SDS011;4386;51.236;6.742;2024-03-23T05:31:42;31.08;;;17.17;;
8698;SDS011;4386;51.236;6.742;2024-03-23T05:32:45;27.17;;;16.15;;
8698;SDS011;4386;51.236;6.742;2024-03-23T05:33:48;106.85;;;19.95;;
8698;SDS011;4386;51.236;6.742;2024-03-23T05:34:49;171.45;;;24.08;;
8698;SDS011;4386;51.236;6.742;2024-03-23T05:35:57;81.38;;;18.02;;
8698;SDS011;4386;51.236;6.742;2024-03-23T05:36:59;81.35;;;17.10;;
8698;SDS011;4386;51.236;6.742;2024-03-23T05:38:02;156.15;;;21.08;;
8698;SDS011;4386;51.236;6.742;2024-03-23T05:39:04;151.05;;;20.33;;
8698;SDS011;4386;51.236;6.742;2024-03-23T05:40:06;93.53;;;19.15;;
8698;SDS011;4386;51.236;6.742;2024-03-23T05:41:11;117.00;;;19.65;;
8698;SDS011;4386;51.236;6.742;2024-03-23T05:42:13;112.65;;;18.48;;
8698;SDS011;4386;51.236;6.742;2024-03-23T05:43:23;131.80;;;18.10;;
8698;SDS011;4386;51.236;6.742;2024-03-23T05:44:26;160.85;;;20.63;;
8698;SDS011;4386;51.236;6.742;2024-03-23T05:45:28;104.05;;;17.70;;
8698;SDS011;4386;51.236;6.742;2024-03-23T05:46:32;178.25;;;21.60;;
8698;SDS011;4386;51.236;6.742;2024-03-23T05:47:35;70.78;;;18.88;;
8698;SDS011;4386;51.236;6.742;2024-03-23T05:48:37;65.70;;;16.77;;
8698;SDS011;4386;51.236;6.742;2024-03-23T05:49:39;46.95;;;16.55;;
8698;SDS011;4386;51.236;6.742;2024-03-23T05:50:41;86.63;;;20.63;;
8698;SDS011;4386;51.236;6.742;2024-03-23T05:51:44;53.45;;;16.73;;
8698;SDS011;4386;51.236;6.742;2024-03-23T05:52:46;95.53;;;18.65;;
8698;SDS011;4386;51.236;6.742;2024-03-23T05:53:49;69.75;;;19.17;;
8698;SDS011;4386;51.236;6.742;2024-03-23T05:54:52;124.88;;;21.25;;
8698;SDS011;4386;51.236;6.742;2024-03-23T05:56:02;74.15;;;19.65;;
8698;SDS011;4386;51.236;6.742;2024-03-23T05:57:05;66.65;;;19.23;;
8698;SDS011;4386;51.236;6.742;2024-03-23T05:58:08;68.85;;;19.20;;
8698;SDS011;4386;51.236;6.742;2024-03-23T05:59:12;76.30;;;19.25;;
8698;SDS011;4386;51.236;6.742;2024-03-23T06:00:14;55.85;;;19.10;;
8698;SDS011;4386;51.236;6.742;2024-03-23T06:01:17;98.25;;;21.13;;
8698;SDS011;4386;51.236;6.742;2024-03-23T06:02:24;70.13;;;19.48;;
8698;SDS011;4386;51.236;6.742;2024-03-23T06:03:27;33.33;;;19.02;;
8698;SDS011;4386;51.236;6.742;2024-03-23T06:04:29;33.38;;;19.38;;
8698;SDS011;4386;51.236;6.742;2024-03-23T06:05:31;28.52;;;18.27;;
8698;SDS011;4386;51.236;6.742;2024-03-23T06:06:33;28.67;;;18.30;;
8698;SDS011;4386;51.236;6.742;2024-03-23T06:07:36;30.55;;;20.13;;
8698;SDS011;4386;51.236;6.742;2024-03-23T06:08:38;21.23;;;14.45;;
8698;SDS011;4386;51.236;6.742;2024-03-23T06:09:40;29.10;;;18.85;;
8698;SDS011;4386;51.236;6.742;2024-03-23T06:10:43;27.52;;;18.55;;
8698;SDS011;4386;51.236;6.742;2024-03-23T06:11:45;20.08;;;15.43;;
8698;SDS011;4386;51.236;6.742;2024-03-23T06:12:47;25.15;;;17.70;;
8698;SDS011;4386;51.236;6.742;2024-03-23T06:13:50;28.92;;;18.52;;
8698;SDS011;4386;51.236;6.742;2024-03-23T06:14:53;22.70;;;17.13;;
8698;SDS011;4386;51.236;6.742;2024-03-23T06:15:55;24.52;;;16.35;;
8698;SDS011;4386;51.236;6.742;2024-03-23T06:16:57;19.23;;;14.57;;
8698;SDS011;4386;51.236;6.742;2024-03-23T06:18:01;22.55;;;15.75;;
8698;SDS011;4386;51.236;6.742;2024-03-23T06:19:04;23.55;;;16.70;;
8698;SDS011;4386;51.236;6.742;2024-03-23T06:20:08;22.65;;;15.90;;
8698;SDS011;4386;51.236;6.742;2024-03-23T06:21:13;20.55;;;14.23;;
8698;SDS011;4386;51.236;6.742;2024-03-23T06:22:16;29.50;;;16.15;;
8698;SDS011;4386;51.236;6.742;2024-03-23T06:23:18;24.13;;;16.55;;
8698;SDS011;4386;51.236;6.742;2024-03-23T06:24:21;23.23;;;16.13;;
8698;SDS011;4386;51.236;6.742;2024-03-23T06:25:25;25.85;;;16.90;;
8698;SDS011;4386;51.236;6.742;2024-03-23T06:26:27;23.75;;;15.32;;
8698;SDS011;4386;51.236;6.742;2024-03-23T06:27:29;30.95;;;16.23;;
8698;SDS011;4386;51.236;6.742;2024-03-23T06:28:33;21.60;;;14.95;;
8698;SDS011;4386;51.236;6.742;2024-03-23T06:29:36;25.35;;;16.77;;
8698;SDS011;4386;51.236;6.742;2024-03-23T06:30:38;23.38;;;16.13;;
8698;SDS011;4386;51.236;6.742;2024-03-23T06:31:40;22.45;;;15.63;;
8698;SDS011;4386;51.236;6.742;2024-03-23T06:32:42;23.65;;;17.67;;
8698;SDS011;4386;51.236;6.742;2024-03-23T06:33:47;21.10;;;15.43;;
8698;SDS011;4386;51.236;6.742;2024-03-23T06:34:49;21.88;;;15.23;;
8698;SDS011;4386;51.236;6.742;2024-03-23T06:35:51;26.13;;;15.20;;
8698;SDS011;4386;51.236;6.742;2024-03-23T06:36:54;21.88;;;16.38;;
8698;SDS011;4386;51.236;6.742;2024-03-23T06:37:56;23.30;;;16.73;;
8698;SDS011;4386;51.236;6.742;2024-03-23T06:38:59;22.90;;;16.03;;
8698;SDS011;4386;51.236;6.742;2024-03-23T06:40:02;24.52;;;16.38;;
8698;SDS011;4386;51.236;6.742;2024-03-23T06:41:06;25.60;;;15.20;;
8698;SDS011;4386;51.236;6.742;2024-03-23T06:42:08;24.37;;;15.87;;
8698;SDS011;4386;51.236;6.742;2024-03-23T06:43:10;22.40;;;14.50;;
8698;SDS011;4386;51.236;6.742;2024-03-23T06:44:13;18.50;;;13.77;;
8698;SDS011;4386;51.236;6.742;2024-03-23T06:45:16;22.67;;;15.37;;
8698;SDS011;4386;51.236;6.742;2024-03-23T06:46:18;22.17;;;14.63;;
8698;SDS011;4386;51.236;6.742;2024-03-23T06:47:20;18.07;;;14.17;;
8698;SDS011;4386;51.236;6.742;2024-03-23T06:48:22;18.67;;;13.73;;
8698;SDS011;4386;51.236;6.742;2024-03-23T06:49:26;22.13;;;13.73;;
8698;SDS011;4386;51.236;6.742;2024-03-23T06:50:28;22.60;;;14.40;;
8698;SDS011;4386;51.236;6.742;2024-03-23T06:51:31;18.17;;;14.43;;
8698;SDS011;4386;51.236;6.742;2024-03-23T06:52:35;17.83;;;14.00;;
8698;SDS011;4386;51.236;6.742;2024-03-23T06:53:38;19.83;;;13.87;;
8698;SDS011;4386;51.236;6.742;2024-03-23T06:54:40;20.93;;;12.10;;
8698;SDS011;4386;51.236;6.742;2024-03-23T06:55:42;16.07;;;12.10;;
8698;SDS011;4386;51.236;6.742;2024-03-23T06:56:51;14.60;;;11.10;;
8698;SDS011;4386;51.236;6.742;2024-03-23T06:57:54;15.83;;;12.27;;
8698;SDS011;4386;51.236;6.742;2024-03-23T06:58:56;17.17;;;12.30;;
8698;SDS011;4386;51.236;6.742;2024-03-23T06:59:58;16.90;;;12.50;;
8698;SDS011;4386;51.236;6.742;2024-03-23T07:01:00;13.77;;;11.20;;
8698;SDS011;4386;51.236;6.742;2024-03-23T07:02:03;11.97;;;9.37;;
8698;SDS011;4386;51.236;6.742;2024-03-23T07:03:05;14.97;;;10.70;;
8698;SDS011;4386;51.236;6.742;2024-03-23T07:04:08;18.70;;;13.50;;
8698;SDS011;4386;51.236;6.742;2024-03-23T07:05:12;15.97;;;12.20;;
8698;SDS011;4386;51.236;6.742;2024-03-23T07:06:14;11.07;;;8.53;;
8698;SDS011;4386;51.236;6.742;2024-03-23T07:07:16;12.67;;;9.53;;
8698;SDS011;4386;51.236;6.742;2024-03-23T07:08:18;17.27;;;10.53;;
8698;SDS011;4386;51.236;6.742;2024-03-23T07:09:23;16.40;;;11.50;;
8698;SDS011;4386;51.236;6.742;2024-03-23T07:10:27;14.93;;;10.63;;
8698;SDS011;4386;51.236;6.742;2024-03-23T07:11:29;12.53;;;8.80;;
8698;SDS011;4386;51.236;6.742;2024-03-23T07:12:31;16.00;;;10.90;;
8698;SDS011;4386;51.236;6.742;2024-03-23T07:13:34;15.20;;;10.10;;
8698;SDS011;4386;51.236;6.742;2024-03-23T07:14:36;10.60;;;8.23;;
8698;SDS011;4386;51.236;6.742;2024-03-23T07:15:38;12.40;;;9.27;;
8698;SDS011;4386;51.236;6.742;2024-03-23T07:16:39;15.13;;;11.80;;
8698;SDS011;4386;51.236;6.742;2024-03-23T07:17:46;16.77;;;12.70;;
8698;SDS011;4386;51.236;6.742;2024-03-23T07:18:49;13.80;;;10.70;;